< < Back
Terminal Aerodrome Forecast


Current Version              Previous Versions:   1  2  3  4  5  6  7  8  9  

Terminal Aerodrome Forecast

385
FTUS42 KJAX 280050 AAA
TAFGNV
TAF AMD
KGNV 280050Z 2801/2824 14005KT P6SM VCSH SCT040 BKN120 BKN250
     FM280400 00000KT P6SM FEW070 FEW250
     FM281400 24006KT P6SM SCT025
     FM281900 26008KT P6SM VCTS SCT050CB SCT120 SCT250=

Latest METAR

000
SAUS70 KWBC 280500 RRC
MTRGNV
METAR KGNV 280453Z AUTO 00000KT 10SM OVC110 26/22 A3002 RMK AO2 SLP161
T02560217 403440211


USA.gov is the U.S. government's official web portal to all federal, state and local government web resources and services.